Leander, Louisiana
Current Conditions -  °F | °C
As of 3:53 AM on Saturday 01 Nov 2014 (Local Time) from KAEX Reporting Station
Clear Clear  
Wind Chill: 42°   Ceiling: Unl
Heat Index: 44°   Visibility: 10mi
Dew Point: 32°   Wind: 5mph
Humidity: 63%   Direction: 20°NNE
Pressure: 30.31"   Gusts: NA
Location:  31.0802°N, 92.7964°W
Report Text: KAEX 010853Z AUTO 02004KT 10SM CLR 07/00 A3031 RMK AO2 SLP269 T00670000 53013
Loading
Personal Weather Stations






























Interactive Weather Map
Tropical Storm Tracking
New forecast layout! Learn more

10-Day Weather Forecast

Advertisements
Track Severe Weather on mobile